sensor_id;sensor_type;location;lat;lon;timestamp;P1;durP1;ratioP1;P2;durP2;ratioP2
45730;SDS011;31440;48.584;13.460;2022-12-18T00:01:40;37.70;;;16.15;;
45730;SDS011;31440;48.584;13.460;2022-12-18T00:04:07;48.15;;;18.23;;
45730;SDS011;31440;48.584;13.460;2022-12-18T00:06:40;44.20;;;20.02;;
45730;SDS011;31440;48.584;13.460;2022-12-18T00:09:05;48.25;;;20.77;;
45730;SDS011;31440;48.584;13.460;2022-12-18T00:11:31;47.90;;;19.50;;
45730;SDS011;31440;48.584;13.460;2022-12-18T00:13:57;50.05;;;19.70;;
45730;SDS011;31440;48.584;13.460;2022-12-18T00:16:24;48.80;;;20.25;;
45730;SDS011;31440;48.584;13.460;2022-12-18T00:18:52;43.83;;;17.55;;
45730;SDS011;31440;48.584;13.460;2022-12-18T00:21:19;38.85;;;18.95;;
45730;SDS011;31440;48.584;13.460;2022-12-18T00:23:46;46.53;;;20.50;;
45730;SDS011;31440;48.584;13.460;2022-12-18T00:26:13;43.47;;;18.42;;
45730;SDS011;31440;48.584;13.460;2022-12-18T00:28:41;39.25;;;17.65;;
45730;SDS011;31440;48.584;13.460;2022-12-18T00:31:08;46.75;;;19.90;;
45730;SDS011;31440;48.584;13.460;2022-12-18T00:33:42;44.65;;;16.95;;
45730;SDS011;31440;48.584;13.460;2022-12-18T00:36:09;47.38;;;19.48;;
45730;SDS011;31440;48.584;13.460;2022-12-18T00:38:37;45.58;;;20.90;;
45730;SDS011;31440;48.584;13.460;2022-12-18T00:41:03;39.50;;;17.60;;
45730;SDS011;31440;48.584;13.460;2022-12-18T00:43:29;47.03;;;21.60;;
45730;SDS011;31440;48.584;13.460;2022-12-18T00:45:55;48.15;;;19.42;;
45730;SDS011;31440;48.584;13.460;2022-12-18T00:48:20;45.90;;;18.88;;
45730;SDS011;31440;48.584;13.460;2022-12-18T00:50:47;49.90;;;20.70;;
45730;SDS011;31440;48.584;13.460;2022-12-18T00:53:14;82.50;;;25.17;;
45730;SDS011;31440;48.584;13.460;2022-12-18T00:55:40;50.85;;;20.42;;
45730;SDS011;31440;48.584;13.460;2022-12-18T00:58:07;51.20;;;20.27;;
45730;SDS011;31440;48.584;13.460;2022-12-18T01:00:34;43.10;;;19.20;;
45730;SDS011;31440;48.584;13.460;2022-12-18T01:03:01;53.05;;;20.77;;
45730;SDS011;31440;48.584;13.460;2022-12-18T01:05:27;51.15;;;21.35;;
45730;SDS011;31440;48.584;13.460;2022-12-18T01:07:52;43.58;;;19.20;;
45730;SDS011;31440;48.584;13.460;2022-12-18T01:10:18;51.13;;;21.08;;
45730;SDS011;31440;48.584;13.460;2022-12-18T01:12:44;50.65;;;19.55;;
45730;SDS011;31440;48.584;13.460;2022-12-18T01:15:10;50.65;;;20.88;;
45730;SDS011;31440;48.584;13.460;2022-12-18T01:17:37;53.60;;;21.77;;
45730;SDS011;31440;48.584;13.460;2022-12-18T01:20:03;50.25;;;20.52;;
45730;SDS011;31440;48.584;13.460;2022-12-18T01:22:31;55.35;;;22.13;;
45730;SDS011;31440;48.584;13.460;2022-12-18T01:24:59;100.35;;;23.63;;
45730;SDS011;31440;48.584;13.460;2022-12-18T01:27:24;58.92;;;19.58;;
45730;SDS011;31440;48.584;13.460;2022-12-18T01:29:50;44.65;;;18.90;;
45730;SDS011;31440;48.584;13.460;2022-12-18T01:32:18;55.35;;;21.92;;
45730;SDS011;31440;48.584;13.460;2022-12-18T01:34:44;50.83;;;20.08;;
45730;SDS011;31440;48.584;13.460;2022-12-18T01:37:10;54.95;;;21.25;;
45730;SDS011;31440;48.584;13.460;2022-12-18T01:39:35;50.80;;;21.10;;
45730;SDS011;31440;48.584;13.460;2022-12-18T01:42:05;54.47;;;20.45;;
45730;SDS011;31440;48.584;13.460;2022-12-18T01:44:50;44.38;;;19.45;;
45730;SDS011;31440;48.584;13.460;2022-12-18T01:50:06;54.67;;;20.17;;
45730;SDS011;31440;48.584;13.460;2022-12-18T01:52:53;52.20;;;21.77;;
45730;SDS011;31440;48.584;13.460;2022-12-18T01:55:22;47.65;;;19.08;;
45730;SDS011;31440;48.584;13.460;2022-12-18T01:57:52;54.10;;;20.40;;
45730;SDS011;31440;48.584;13.460;2022-12-18T02:00:21;48.05;;;20.45;;
45730;SDS011;31440;48.584;13.460;2022-12-18T02:02:49;55.90;;;20.33;;
45730;SDS011;31440;48.584;13.460;2022-12-18T02:05:18;55.63;;;23.35;;
45730;SDS011;31440;48.584;13.460;2022-12-18T02:08:09;51.33;;;20.88;;
45730;SDS011;31440;48.584;13.460;2022-12-18T02:10:48;56.97;;;19.65;;
45730;SDS011;31440;48.584;13.460;2022-12-18T02:22:17;55.60;;;22.33;;
45730;SDS011;31440;48.584;13.460;2022-12-18T02:25:19;50.03;;;22.00;;
45730;SDS011;31440;48.584;13.460;2022-12-18T02:28:06;47.13;;;18.88;;
45730;SDS011;31440;48.584;13.460;2022-12-18T02:30:36;55.08;;;20.48;;
45730;SDS011;31440;48.584;13.460;2022-12-18T02:33:04;54.45;;;22.40;;
45730;SDS011;31440;48.584;13.460;2022-12-18T02:35:33;51.55;;;19.17;;
45730;SDS011;31440;48.584;13.460;2022-12-18T02:38:01;52.53;;;20.70;;
45730;SDS011;31440;48.584;13.460;2022-12-18T02:40:29;53.92;;;21.50;;
45730;SDS011;31440;48.584;13.460;2022-12-18T02:43:07;54.15;;;22.60;;
45730;SDS011;31440;48.584;13.460;2022-12-18T02:45:56;49.22;;;19.98;;
45730;SDS011;31440;48.584;13.460;2022-12-18T02:48:26;63.20;;;21.50;;
45730;SDS011;31440;48.584;13.460;2022-12-18T02:51:00;54.42;;;21.58;;
45730;SDS011;31440;48.584;13.460;2022-12-18T02:56:25;52.78;;;19.98;;
45730;SDS011;31440;48.584;13.460;2022-12-18T02:59:00;54.72;;;22.25;;
45730;SDS011;31440;48.584;13.460;2022-12-18T03:07:17;59.47;;;23.02;;
45730;SDS011;31440;48.584;13.460;2022-12-18T03:09:50;66.68;;;22.17;;
45730;SDS011;31440;48.584;13.460;2022-12-18T03:15:02;56.88;;;20.98;;
45730;SDS011;31440;48.584;13.460;2022-12-18T03:17:34;50.85;;;19.58;;
45730;SDS011;31440;48.584;13.460;2022-12-18T03:20:07;58.05;;;23.08;;
45730;SDS011;31440;48.584;13.460;2022-12-18T03:22:37;57.25;;;22.95;;
45730;SDS011;31440;48.584;13.460;2022-12-18T03:25:06;59.17;;;21.63;;
45730;SDS011;31440;48.584;13.460;2022-12-18T03:27:35;56.65;;;22.73;;
45730;SDS011;31440;48.584;13.460;2022-12-18T03:30:10;59.22;;;21.00;;
45730;SDS011;31440;48.584;13.460;2022-12-18T03:32:47;54.83;;;21.80;;
45730;SDS011;31440;48.584;13.460;2022-12-18T03:35:21;60.40;;;22.73;;
45730;SDS011;31440;48.584;13.460;2022-12-18T03:37:52;58.83;;;22.65;;
45730;SDS011;31440;48.584;13.460;2022-12-18T03:40:17;52.20;;;20.88;;
45730;SDS011;31440;48.584;13.460;2022-12-18T03:42:49;60.47;;;20.40;;
45730;SDS011;31440;48.584;13.460;2022-12-18T03:45:20;55.90;;;22.15;;
45730;SDS011;31440;48.584;13.460;2022-12-18T03:53:29;52.50;;;20.55;;
45730;SDS011;31440;48.584;13.460;2022-12-18T03:56:02;68.22;;;21.33;;
45730;SDS011;31440;48.584;13.460;2022-12-18T03:58:35;51.47;;;19.50;;
45730;SDS011;31440;48.584;13.460;2022-12-18T04:01:14;57.10;;;19.40;;
45730;SDS011;31440;48.584;13.460;2022-12-18T04:03:42;49.97;;;20.85;;
45730;SDS011;31440;48.584;13.460;2022-12-18T04:06:10;51.40;;;20.42;;
45730;SDS011;31440;48.584;13.460;2022-12-18T04:08:39;58.80;;;19.70;;
45730;SDS011;31440;48.584;13.460;2022-12-18T04:11:06;55.22;;;19.50;;
45730;SDS011;31440;48.584;13.460;2022-12-18T04:13:34;55.78;;;20.65;;
45730;SDS011;31440;48.584;13.460;2022-12-18T04:16:04;58.55;;;20.33;;
45730;SDS011;31440;48.584;13.460;2022-12-18T04:18:31;51.70;;;21.00;;
45730;SDS011;31440;48.584;13.460;2022-12-18T04:20:58;57.65;;;22.63;;
45730;SDS011;31440;48.584;13.460;2022-12-18T04:23:24;60.90;;;22.70;;
45730;SDS011;31440;48.584;13.460;2022-12-18T04:25:52;54.63;;;21.83;;
45730;SDS011;31440;48.584;13.460;2022-12-18T04:28:27;57.40;;;20.30;;
45730;SDS011;31440;48.584;13.460;2022-12-18T04:30:52;50.72;;;20.52;;
45730;SDS011;31440;48.584;13.460;2022-12-18T04:33:19;56.38;;;23.30;;
45730;SDS011;31440;48.584;13.460;2022-12-18T04:35:45;58.28;;;23.33;;
45730;SDS011;31440;48.584;13.460;2022-12-18T04:38:11;53.70;;;19.65;;
45730;SDS011;31440;48.584;13.460;2022-12-18T04:40:38;50.10;;;21.27;;
45730;SDS011;31440;48.584;13.460;2022-12-18T04:43:10;45.97;;;19.08;;
45730;SDS011;31440;48.584;13.460;2022-12-18T04:45:36;55.63;;;21.67;;
45730;SDS011;31440;48.584;13.460;2022-12-18T04:48:02;47.97;;;19.38;;
45730;SDS011;31440;48.584;13.460;2022-12-18T04:50:29;49.45;;;20.10;;
45730;SDS011;31440;48.584;13.460;2022-12-18T04:52:55;51.15;;;19.70;;
45730;SDS011;31440;48.584;13.460;2022-12-18T04:55:21;58.28;;;19.83;;
45730;SDS011;31440;48.584;13.460;2022-12-18T04:57:47;47.55;;;17.85;;
45730;SDS011;31440;48.584;13.460;2022-12-18T05:00:12;41.35;;;17.42;;
45730;SDS011;31440;48.584;13.460;2022-12-18T05:02:38;45.75;;;19.60;;
45730;SDS011;31440;48.584;13.460;2022-12-18T05:05:04;51.75;;;18.23;;
45730;SDS011;31440;48.584;13.460;2022-12-18T05:07:30;50.30;;;20.25;;
45730;SDS011;31440;48.584;13.460;2022-12-18T05:09:56;54.70;;;19.13;;
45730;SDS011;31440;48.584;13.460;2022-12-18T05:12:21;45.65;;;16.63;;
45730;SDS011;31440;48.584;13.460;2022-12-18T05:14:48;41.65;;;16.92;;
45730;SDS011;31440;48.584;13.460;2022-12-18T05:17:14;40.13;;;17.50;;
45730;SDS011;31440;48.584;13.460;2022-12-18T05:19:39;38.60;;;15.98;;
45730;SDS011;31440;48.584;13.460;2022-12-18T05:22:05;43.47;;;17.77;;
45730;SDS011;31440;48.584;13.460;2022-12-18T05:24:30;49.88;;;15.30;;
45730;SDS011;31440;48.584;13.460;2022-12-18T05:26:56;38.85;;;16.92;;
45730;SDS011;31440;48.584;13.460;2022-12-18T05:29:21;44.72;;;18.73;;
45730;SDS011;31440;48.584;13.460;2022-12-18T05:31:47;67.38;;;17.85;;
45730;SDS011;31440;48.584;13.460;2022-12-18T05:34:12;43.60;;;16.33;;
45730;SDS011;31440;48.584;13.460;2022-12-18T05:36:38;50.08;;;16.08;;
45730;SDS011;31440;48.584;13.460;2022-12-18T05:39:03;55.13;;;18.67;;
45730;SDS011;31440;48.584;13.460;2022-12-18T05:41:29;53.30;;;18.10;;
45730;SDS011;31440;48.584;13.460;2022-12-18T05:43:55;44.40;;;16.65;;
45730;SDS011;31440;48.584;13.460;2022-12-18T05:46:20;45.50;;;17.70;;
45730;SDS011;31440;48.584;13.460;2022-12-18T05:48:46;53.03;;;18.70;;
45730;SDS011;31440;48.584;13.460;2022-12-18T05:51:12;52.05;;;18.17;;
45730;SDS011;31440;48.584;13.460;2022-12-18T05:53:45;48.10;;;17.92;;
45730;SDS011;31440;48.584;13.460;2022-12-18T05:56:12;51.13;;;20.55;;
45730;SDS011;31440;48.584;13.460;2022-12-18T05:58:40;55.10;;;20.45;;
45730;SDS011;31440;48.584;13.460;2022-12-18T06:03:37;54.35;;;21.27;;
45730;SDS011;31440;48.584;13.460;2022-12-18T06:06:03;50.10;;;17.92;;
45730;SDS011;31440;48.584;13.460;2022-12-18T06:08:28;58.10;;;20.92;;
45730;SDS011;31440;48.584;13.460;2022-12-18T06:10:54;60.30;;;22.65;;
45730;SDS011;31440;48.584;13.460;2022-12-18T06:13:20;51.25;;;17.60;;
45730;SDS011;31440;48.584;13.460;2022-12-18T06:15:46;47.60;;;18.83;;
45730;SDS011;31440;48.584;13.460;2022-12-18T06:18:12;61.58;;;17.52;;
45730;SDS011;31440;48.584;13.460;2022-12-18T06:20:37;33.20;;;14.20;;
45730;SDS011;31440;48.584;13.460;2022-12-18T06:23:05;41.00;;;14.98;;
45730;SDS011;31440;48.584;13.460;2022-12-18T06:25:31;46.33;;;17.15;;
45730;SDS011;31440;48.584;13.460;2022-12-18T06:27:57;48.63;;;17.70;;
45730;SDS011;31440;48.584;13.460;2022-12-18T06:30:22;42.67;;;16.30;;
45730;SDS011;31440;48.584;13.460;2022-12-18T06:32:48;48.97;;;17.52;;
45730;SDS011;31440;48.584;13.460;2022-12-18T06:35:14;41.78;;;15.98;;
45730;SDS011;31440;48.584;13.460;2022-12-18T06:37:40;46.78;;;17.98;;
45730;SDS011;31440;48.584;13.460;2022-12-18T06:40:06;43.47;;;17.02;;
45730;SDS011;31440;48.584;13.460;2022-12-18T06:42:32;49.83;;;17.60;;
45730;SDS011;31440;48.584;13.460;2022-12-18T06:44:58;49.58;;;17.00;;
45730;SDS011;31440;48.584;13.460;2022-12-18T06:47:23;40.65;;;16.27;;
45730;SDS011;31440;48.584;13.460;2022-12-18T06:49:49;45.08;;;16.98;;
45730;SDS011;31440;48.584;13.460;2022-12-18T06:52:16;45.60;;;17.58;;
45730;SDS011;31440;48.584;13.460;2022-12-18T06:54:41;51.75;;;16.20;;
45730;SDS011;31440;48.584;13.460;2022-12-18T06:57:07;37.50;;;15.05;;
45730;SDS011;31440;48.584;13.460;2022-12-18T06:59:32;44.22;;;16.98;;
45730;SDS011;31440;48.584;13.460;2022-12-18T07:01:58;40.90;;;14.63;;
45730;SDS011;31440;48.584;13.460;2022-12-18T07:04:30;44.25;;;18.05;;
45730;SDS011;31440;48.584;13.460;2022-12-18T07:09:22;45.03;;;17.98;;
45730;SDS011;31440;48.584;13.460;2022-12-18T07:11:48;43.15;;;15.32;;
45730;SDS011;31440;48.584;13.460;2022-12-18T07:14:14;46.30;;;17.95;;
45730;SDS011;31440;48.584;13.460;2022-12-18T07:16:39;48.78;;;18.95;;
45730;SDS011;31440;48.584;13.460;2022-12-18T07:19:05;42.05;;;16.00;;
45730;SDS011;31440;48.584;13.460;2022-12-18T07:21:31;45.83;;;17.15;;
45730;SDS011;31440;48.584;13.460;2022-12-18T07:23:56;52.25;;;18.67;;
45730;SDS011;31440;48.584;13.460;2022-12-18T07:26:22;48.72;;;19.13;;
45730;SDS011;31440;48.584;13.460;2022-12-18T07:28:48;48.88;;;19.52;;
45730;SDS011;31440;48.584;13.460;2022-12-18T07:31:16;46.63;;;17.98;;
45730;SDS011;31440;48.584;13.460;2022-12-18T07:33:43;39.92;;;16.50;;
45730;SDS011;31440;48.584;13.460;2022-12-18T07:36:09;42.17;;;16.08;;
45730;SDS011;31440;48.584;13.460;2022-12-18T07:38:35;36.03;;;15.50;;
45730;SDS011;31440;48.584;13.460;2022-12-18T07:41:05;39.53;;;13.80;;
45730;SDS011;31440;48.584;13.460;2022-12-18T07:43:32;37.95;;;15.55;;
45730;SDS011;31440;48.584;13.460;2022-12-18T07:45:59;37.88;;;15.27;;
45730;SDS011;31440;48.584;13.460;2022-12-18T07:48:24;39.97;;;14.50;;
45730;SDS011;31440;48.584;13.460;2022-12-18T07:50:50;44.60;;;16.27;;
45730;SDS011;31440;48.584;13.460;2022-12-18T07:53:15;40.97;;;13.70;;
45730;SDS011;31440;48.584;13.460;2022-12-18T07:55:41;37.20;;;14.95;;
45730;SDS011;31440;48.584;13.460;2022-12-18T07:58:07;48.47;;;14.88;;
45730;SDS011;31440;48.584;13.460;2022-12-18T08:00:33;38.70;;;13.95;;
45730;SDS011;31440;48.584;13.460;2022-12-18T08:03:00;34.58;;;16.17;;
45730;SDS011;31440;48.584;13.460;2022-12-18T08:05:25;41.35;;;14.27;;
45730;SDS011;31440;48.584;13.460;2022-12-18T08:07:51;31.33;;;13.20;;
45730;SDS011;31440;48.584;13.460;2022-12-18T08:10:18;40.40;;;12.60;;
45730;SDS011;31440;48.584;13.460;2022-12-18T08:12:43;33.08;;;14.05;;
45730;SDS011;31440;48.584;13.460;2022-12-18T08:15:09;34.88;;;13.13;;
45730;SDS011;31440;48.584;13.460;2022-12-18T08:17:34;40.03;;;14.95;;
45730;SDS011;31440;48.584;13.460;2022-12-18T08:20:00;51.55;;;13.50;;
45730;SDS011;31440;48.584;13.460;2022-12-18T08:22:25;52.97;;;17.40;;
45730;SDS011;31440;48.584;13.460;2022-12-18T08:24:51;42.47;;;15.05;;
45730;SDS011;31440;48.584;13.460;2022-12-18T08:27:17;33.03;;;14.60;;
45730;SDS011;31440;48.584;13.460;2022-12-18T08:29:42;43.67;;;17.05;;
45730;SDS011;31440;48.584;13.460;2022-12-18T08:32:08;37.92;;;15.85;;
45730;SDS011;31440;48.584;13.460;2022-12-18T08:34:33;44.35;;;15.00;;
45730;SDS011;31440;48.584;13.460;2022-12-18T08:36:59;37.97;;;15.15;;
45730;SDS011;31440;48.584;13.460;2022-12-18T08:39:24;44.80;;;14.05;;
45730;SDS011;31440;48.584;13.460;2022-12-18T08:41:50;40.97;;;13.55;;
45730;SDS011;31440;48.584;13.460;2022-12-18T08:44:34;43.80;;;16.10;;
45730;SDS011;31440;48.584;13.460;2022-12-18T08:47:02;43.65;;;15.65;;
45730;SDS011;31440;48.584;13.460;2022-12-18T08:49:28;39.25;;;16.17;;
45730;SDS011;31440;48.584;13.460;2022-12-18T08:51:54;35.30;;;15.18;;
45730;SDS011;31440;48.584;13.460;2022-12-18T08:54:22;38.30;;;15.55;;
45730;SDS011;31440;48.584;13.460;2022-12-18T08:56:47;40.72;;;15.13;;
45730;SDS011;31440;48.584;13.460;2022-12-18T08:59:14;41.53;;;15.70;;
45730;SDS011;31440;48.584;13.460;2022-12-18T09:01:43;42.80;;;15.32;;
45730;SDS011;31440;48.584;13.460;2022-12-18T09:04:09;36.00;;;16.05;;
45730;SDS011;31440;48.584;13.460;2022-12-18T09:06:35;36.78;;;13.75;;
45730;SDS011;31440;48.584;13.460;2022-12-18T09:09:02;39.20;;;15.02;;
45730;SDS011;31440;48.584;13.460;2022-12-18T09:11:28;31.67;;;13.68;;
45730;SDS011;31440;48.584;13.460;2022-12-18T09:13:54;34.95;;;13.38;;
45730;SDS011;31440;48.584;13.460;2022-12-18T09:16:20;35.30;;;14.60;;
45730;SDS011;31440;48.584;13.460;2022-12-18T09:18:47;37.13;;;14.52;;
45730;SDS011;31440;48.584;13.460;2022-12-18T09:21:19;35.50;;;13.32;;
45730;SDS011;31440;48.584;13.460;2022-12-18T09:23:49;37.90;;;15.07;;
45730;SDS011;31440;48.584;13.460;2022-12-18T09:26:16;30.33;;;15.27;;
45730;SDS011;31440;48.584;13.460;2022-12-18T09:28:42;39.10;;;15.00;;
45730;SDS011;31440;48.584;13.460;2022-12-18T09:31:07;26.38;;;13.32;;
45730;SDS011;31440;48.584;13.460;2022-12-18T09:33:34;32.95;;;13.82;;
45730;SDS011;31440;48.584;13.460;2022-12-18T09:36:02;31.25;;;12.18;;
45730;SDS011;31440;48.584;13.460;2022-12-18T09:38:30;39.00;;;13.50;;
45730;SDS011;31440;48.584;13.460;2022-12-18T09:40:58;32.13;;;13.32;;
45730;SDS011;31440;48.584;13.460;2022-12-18T09:46:03;46.90;;;14.70;;
45730;SDS011;31440;48.584;13.460;2022-12-18T09:48:36;24.48;;;13.05;;
45730;SDS011;31440;48.584;13.460;2022-12-18T09:51:18;30.13;;;12.77;;
45730;SDS011;31440;48.584;13.460;2022-12-18T09:53:50;27.17;;;13.05;;
45730;SDS011;31440;48.584;13.460;2022-12-18T09:56:20;33.47;;;14.03;;
45730;SDS011;31440;48.584;13.460;2022-12-18T09:58:53;26.00;;;13.15;;
45730;SDS011;31440;48.584;13.460;2022-12-18T10:01:23;34.97;;;13.75;;
45730;SDS011;31440;48.584;13.460;2022-12-18T10:03:50;29.92;;;13.15;;
45730;SDS011;31440;48.584;13.460;2022-12-18T10:11:48;31.17;;;13.65;;
45730;SDS011;31440;48.584;13.460;2022-12-18T10:14:23;30.58;;;13.35;;
45730;SDS011;31440;48.584;13.460;2022-12-18T10:20:05;32.28;;;12.90;;
45730;SDS011;31440;48.584;13.460;2022-12-18T10:22:51;30.13;;;12.27;;
45730;SDS011;31440;48.584;13.460;2022-12-18T10:28:20;29.70;;;13.43;;
45730;SDS011;31440;48.584;13.460;2022-12-18T10:30:47;30.73;;;12.75;;
45730;SDS011;31440;48.584;13.460;2022-12-18T10:33:13;30.55;;;13.95;;
45730;SDS011;31440;48.584;13.460;2022-12-18T10:35:42;29.88;;;12.52;;
45730;SDS011;31440;48.584;13.460;2022-12-18T10:43:38;27.67;;;11.25;;
45730;SDS011;31440;48.584;13.460;2022-12-18T10:48:39;27.35;;;10.85;;
45730;SDS011;31440;48.584;13.460;2022-12-18T10:51:37;18.55;;;9.70;;
45730;SDS011;31440;48.584;13.460;2022-12-18T10:54:20;23.27;;;9.07;;
45730;SDS011;31440;48.584;13.460;2022-12-18T10:56:47;20.98;;;9.05;;
45730;SDS011;31440;48.584;13.460;2022-12-18T10:59:14;21.42;;;10.40;;
45730;SDS011;31440;48.584;13.460;2022-12-18T11:04:16;21.00;;;8.77;;
45730;SDS011;31440;48.584;13.460;2022-12-18T11:06:55;19.48;;;10.07;;
45730;SDS011;31440;48.584;13.460;2022-12-18T11:09:23;23.13;;;11.05;;
45730;SDS011;31440;48.584;13.460;2022-12-18T11:11:51;26.52;;;11.23;;
45730;SDS011;31440;48.584;13.460;2022-12-18T11:16:53;24.88;;;10.05;;
45730;SDS011;31440;48.584;13.460;2022-12-18T11:19:26;18.73;;;10.13;;
45730;SDS011;31440;48.584;13.460;2022-12-18T11:21:57;19.45;;;9.60;;
45730;SDS011;31440;48.584;13.460;2022-12-18T11:24:33;21.08;;;9.75;;
45730;SDS011;31440;48.584;13.460;2022-12-18T11:27:01;23.83;;;10.45;;
45730;SDS011;31440;48.584;13.460;2022-12-18T11:29:33;19.25;;;9.65;;
45730;SDS011;31440;48.584;13.460;2022-12-18T11:34:59;24.00;;;11.27;;
45730;SDS011;31440;48.584;13.460;2022-12-18T11:37:31;23.13;;;10.93;;
45730;SDS011;31440;48.584;13.460;2022-12-18T11:39:59;25.83;;;10.50;;
45730;SDS011;31440;48.584;13.460;2022-12-18T11:45:29;20.80;;;10.27;;
45730;SDS011;31440;48.584;13.460;2022-12-18T11:50:41;25.98;;;12.70;;
45730;SDS011;31440;48.584;13.460;2022-12-18T11:53:13;31.55;;;14.23;;
45730;SDS011;31440;48.584;13.460;2022-12-18T11:55:41;25.92;;;12.38;;
45730;SDS011;31440;48.584;13.460;2022-12-18T11:58:26;29.77;;;13.73;;
45730;SDS011;31440;48.584;13.460;2022-12-18T12:00:58;30.73;;;14.52;;
45730;SDS011;31440;48.584;13.460;2022-12-18T12:15:17;27.08;;;14.32;;
45730;SDS011;31440;48.584;13.460;2022-12-18T12:18:04;30.13;;;15.73;;
45730;SDS011;31440;48.584;13.460;2022-12-18T12:26:03;26.92;;;12.50;;
45730;SDS011;31440;48.584;13.460;2022-12-18T12:28:44;35.30;;;15.45;;
45730;SDS011;31440;48.584;13.460;2022-12-18T12:34:18;28.88;;;12.82;;
45730;SDS011;31440;48.584;13.460;2022-12-18T12:39:37;27.13;;;12.98;;
45730;SDS011;31440;48.584;13.460;2022-12-18T12:42:08;30.52;;;14.48;;
45730;SDS011;31440;48.584;13.460;2022-12-18T12:45:01;28.25;;;15.05;;
45730;SDS011;31440;48.584;13.460;2022-12-18T12:47:32;30.65;;;14.73;;
45730;SDS011;31440;48.584;13.460;2022-12-18T12:50:05;31.25;;;15.13;;
45730;SDS011;31440;48.584;13.460;2022-12-18T12:52:43;28.88;;;15.32;;
45730;SDS011;31440;48.584;13.460;2022-12-18T12:55:16;26.35;;;14.27;;
45730;SDS011;31440;48.584;13.460;2022-12-18T12:57:47;26.73;;;13.48;;
45730;SDS011;31440;48.584;13.460;2022-12-18T13:00:21;30.90;;;13.60;;
45730;SDS011;31440;48.584;13.460;2022-12-18T13:05:36;30.23;;;14.52;;
45730;SDS011;31440;48.584;13.460;2022-12-18T13:08:10;31.27;;;16.30;;
45730;SDS011;31440;48.584;13.460;2022-12-18T13:10:46;28.80;;;14.95;;
45730;SDS011;31440;48.584;13.460;2022-12-18T13:13:13;24.90;;;12.65;;
45730;SDS011;31440;48.584;13.460;2022-12-18T13:36:34;32.25;;;14.82;;
45730;SDS011;31440;48.584;13.460;2022-12-18T13:41:47;27.45;;;15.38;;
45730;SDS011;31440;48.584;13.460;2022-12-18T13:46:55;25.77;;;12.88;;
45730;SDS011;31440;48.584;13.460;2022-12-18T13:49:30;27.25;;;15.13;;
45730;SDS011;31440;48.584;13.460;2022-12-18T13:51:58;30.45;;;13.93;;
45730;SDS011;31440;48.584;13.460;2022-12-18T13:54:29;30.38;;;14.82;;
45730;SDS011;31440;48.584;13.460;2022-12-18T13:57:05;29.90;;;13.82;;
45730;SDS011;31440;48.584;13.460;2022-12-18T13:59:50;30.17;;;14.93;;
45730;SDS011;31440;48.584;13.460;2022-12-18T14:02:25;31.27;;;14.43;;
45730;SDS011;31440;48.584;13.460;2022-12-18T14:04:52;31.20;;;15.32;;
45730;SDS011;31440;48.584;13.460;2022-12-18T14:10:02;31.88;;;14.75;;
45730;SDS011;31440;48.584;13.460;2022-12-18T14:12:31;29.50;;;14.80;;
45730;SDS011;31440;48.584;13.460;2022-12-18T14:17:50;33.88;;;14.90;;
45730;SDS011;31440;48.584;13.460;2022-12-18T14:20:22;28.10;;;14.60;;
45730;SDS011;31440;48.584;13.460;2022-12-18T14:22:49;30.52;;;14.55;;
45730;SDS011;31440;48.584;13.460;2022-12-18T14:27:53;31.85;;;15.45;;
45730;SDS011;31440;48.584;13.460;2022-12-18T14:30:31;29.27;;;14.13;;
45730;SDS011;31440;48.584;13.460;2022-12-18T14:33:10;26.52;;;12.55;;
45730;SDS011;31440;48.584;13.460;2022-12-18T14:40:58;26.98;;;12.13;;
45730;SDS011;31440;48.584;13.460;2022-12-18T14:43:29;21.50;;;11.93;;
45730;SDS011;31440;48.584;13.460;2022-12-18T14:45:57;25.95;;;12.38;;
45730;SDS011;31440;48.584;13.460;2022-12-18T14:48:35;27.83;;;13.55;;
45730;SDS011;31440;48.584;13.460;2022-12-18T14:51:14;22.80;;;11.70;;
45730;SDS011;31440;48.584;13.460;2022-12-18T14:53:47;23.63;;;11.55;;
45730;SDS011;31440;48.584;13.460;2022-12-18T14:56:20;30.55;;;13.20;;
45730;SDS011;31440;48.584;13.460;2022-12-18T14:58:49;26.83;;;13.88;;
45730;SDS011;31440;48.584;13.460;2022-12-18T15:01:19;27.73;;;14.15;;
45730;SDS011;31440;48.584;13.460;2022-12-18T15:03:47;30.15;;;14.48;;
45730;SDS011;31440;48.584;13.460;2022-12-18T15:06:17;26.85;;;11.25;;
45730;SDS011;31440;48.584;13.460;2022-12-18T15:08:58;27.02;;;12.30;;
45730;SDS011;31440;48.584;13.460;2022-12-18T15:11:33;23.30;;;11.68;;
45730;SDS011;31440;48.584;13.460;2022-12-18T15:16:50;23.17;;;11.75;;
45730;SDS011;31440;48.584;13.460;2022-12-18T15:19:17;23.05;;;11.63;;
45730;SDS011;31440;48.584;13.460;2022-12-18T15:21:44;19.00;;;11.48;;
45730;SDS011;31440;48.584;13.460;2022-12-18T15:24:16;23.98;;;12.15;;
45730;SDS011;31440;48.584;13.460;2022-12-18T15:26:44;24.13;;;12.13;;
45730;SDS011;31440;48.584;13.460;2022-12-18T15:29:20;21.65;;;11.13;;
45730;SDS011;31440;48.584;13.460;2022-12-18T15:32:02;22.48;;;9.93;;
45730;SDS011;31440;48.584;13.460;2022-12-18T15:34:43;25.10;;;11.63;;
45730;SDS011;31440;48.584;13.460;2022-12-18T15:37:09;28.13;;;11.05;;
45730;SDS011;31440;48.584;13.460;2022-12-18T15:39:34;27.55;;;12.93;;
45730;SDS011;31440;48.584;13.460;2022-12-18T15:42:01;25.60;;;11.45;;
45730;SDS011;31440;48.584;13.460;2022-12-18T15:44:45;32.58;;;13.85;;
45730;SDS011;31440;48.584;13.460;2022-12-18T15:47:12;28.58;;;13.70;;
45730;SDS011;31440;48.584;13.460;2022-12-18T15:49:38;29.10;;;14.93;;
45730;SDS011;31440;48.584;13.460;2022-12-18T15:52:04;37.72;;;15.75;;
45730;SDS011;31440;48.584;13.460;2022-12-18T15:54:30;32.53;;;15.25;;
45730;SDS011;31440;48.584;13.460;2022-12-18T15:57:15;35.33;;;16.50;;
45730;SDS011;31440;48.584;13.460;2022-12-18T15:59:50;33.13;;;16.30;;
45730;SDS011;31440;48.584;13.460;2022-12-18T16:02:18;36.42;;;17.63;;
45730;SDS011;31440;48.584;13.460;2022-12-18T16:04:44;36.40;;;17.67;;
45730;SDS011;31440;48.584;13.460;2022-12-18T16:07:11;36.70;;;16.70;;
45730;SDS011;31440;48.584;13.460;2022-12-18T16:09:37;35.55;;;17.70;;
45730;SDS011;31440;48.584;13.460;2022-12-18T16:12:04;37.92;;;18.38;;
45730;SDS011;31440;48.584;13.460;2022-12-18T16:14:33;32.47;;;15.43;;
45730;SDS011;31440;48.584;13.460;2022-12-18T16:16:59;35.63;;;16.33;;
45730;SDS011;31440;48.584;13.460;2022-12-18T16:19:27;36.42;;;17.02;;
45730;SDS011;31440;48.584;13.460;2022-12-18T16:21:54;34.30;;;16.85;;
45730;SDS011;31440;48.584;13.460;2022-12-18T16:24:22;37.28;;;17.08;;
45730;SDS011;31440;48.584;13.460;2022-12-18T16:26:49;36.47;;;15.93;;
45730;SDS011;31440;48.584;13.460;2022-12-18T16:29:16;40.50;;;17.52;;
45730;SDS011;31440;48.584;13.460;2022-12-18T16:31:42;36.97;;;16.05;;
45730;SDS011;31440;48.584;13.460;2022-12-18T16:36:51;31.85;;;15.23;;
45730;SDS011;31440;48.584;13.460;2022-12-18T16:39:17;36.00;;;16.23;;
45730;SDS011;31440;48.584;13.460;2022-12-18T16:41:42;32.83;;;15.70;;